sensor_id;sensor_type;location;lat;lon;timestamp;temperature;humidity
4433;DHT22;2229;48.708;9.706;2024-03-25T00:00:53;5.10;99.90
4433;DHT22;2229;48.708;9.706;2024-03-25T00:03:21;5.10;99.90
4433;DHT22;2229;48.708;9.706;2024-03-25T00:05:47;5.10;99.90
4433;DHT22;2229;48.708;9.706;2024-03-25T00:08:15;5.10;99.90
4433;DHT22;2229;48.708;9.706;2024-03-25T00:10:41;5.10;99.90
4433;DHT22;2229;48.708;9.706;2024-03-25T00:13:09;5.10;99.90
4433;DHT22;2229;48.708;9.706;2024-03-25T00:15:36;5.10;99.90
4433;DHT22;2229;48.708;9.706;2024-03-25T00:18:04;5.10;99.90
4433;DHT22;2229;48.708;9.706;2024-03-25T00:20:30;5.10;99.90
4433;DHT22;2229;48.708;9.706;2024-03-25T00:22:58;5.10;99.90
4433;DHT22;2229;48.708;9.706;2024-03-25T00:25:24;5.10;99.90
4433;DHT22;2229;48.708;9.706;2024-03-25T00:27:51;5.10;99.90
4433;DHT22;2229;48.708;9.706;2024-03-25T00:30:19;5.10;99.90
4433;DHT22;2229;48.708;9.706;2024-03-25T00:32:47;5.10;99.90
4433;DHT22;2229;48.708;9.706;2024-03-25T00:35:13;5.10;99.90
4433;DHT22;2229;48.708;9.706;2024-03-25T00:37:40;5.10;99.90
4433;DHT22;2229;48.708;9.706;2024-03-25T00:40:07;5.10;99.90
4433;DHT22;2229;48.708;9.706;2024-03-25T00:42:35;5.10;99.90
4433;DHT22;2229;48.708;9.706;2024-03-25T00:45:01;5.10;99.90
4433;DHT22;2229;48.708;9.706;2024-03-25T00:47:30;5.10;99.90
4433;DHT22;2229;48.708;9.706;2024-03-25T00:49:56;5.00;99.90
4433;DHT22;2229;48.708;9.706;2024-03-25T00:52:23;5.00;99.90
4433;DHT22;2229;48.708;9.706;2024-03-25T00:54:50;5.00;99.90
4433;DHT22;2229;48.708;9.706;2024-03-25T00:57:17;5.00;99.90
4433;DHT22;2229;48.708;9.706;2024-03-25T00:59:44;5.00;99.90
4433;DHT22;2229;48.708;9.706;2024-03-25T01:02:11;5.00;99.90
4433;DHT22;2229;48.708;9.706;2024-03-25T01:04:38;5.00;99.90
4433;DHT22;2229;48.708;9.706;2024-03-25T01:07:06;5.00;99.90
4433;DHT22;2229;48.708;9.706;2024-03-25T01:09:32;5.00;99.90
4433;DHT22;2229;48.708;9.706;2024-03-25T01:11:59;5.00;99.90
4433;DHT22;2229;48.708;9.706;2024-03-25T01:14:25;5.00;99.90
4433;DHT22;2229;48.708;9.706;2024-03-25T01:16:53;5.00;99.90
4433;DHT22;2229;48.708;9.706;2024-03-25T01:19:19;4.90;99.90
4433;DHT22;2229;48.708;9.706;2024-03-25T01:21:49;4.90;99.90
4433;DHT22;2229;48.708;9.706;2024-03-25T01:24:16;4.90;99.90
4433;DHT22;2229;48.708;9.706;2024-03-25T01:26:43;4.80;99.90
4433;DHT22;2229;48.708;9.706;2024-03-25T01:29:09;4.80;99.90
4433;DHT22;2229;48.708;9.706;2024-03-25T01:31:36;4.80;99.90
4433;DHT22;2229;48.708;9.706;2024-03-25T01:34:02;4.80;99.90
4433;DHT22;2229;48.708;9.706;2024-03-25T01:36:30;4.80;99.90
4433;DHT22;2229;48.708;9.706;2024-03-25T01:38:58;4.70;99.90
4433;DHT22;2229;48.708;9.706;2024-03-25T01:41:25;4.70;99.90
4433;DHT22;2229;48.708;9.706;2024-03-25T01:43:53;4.70;99.90
4433;DHT22;2229;48.708;9.706;2024-03-25T01:46:20;4.70;99.90
4433;DHT22;2229;48.708;9.706;2024-03-25T01:48:48;4.60;99.90
4433;DHT22;2229;48.708;9.706;2024-03-25T01:51:20;4.60;99.90
4433;DHT22;2229;48.708;9.706;2024-03-25T01:53:48;4.50;99.90
4433;DHT22;2229;48.708;9.706;2024-03-25T01:56:18;4.50;99.90
4433;DHT22;2229;48.708;9.706;2024-03-25T01:58:45;4.50;99.90
4433;DHT22;2229;48.708;9.706;2024-03-25T02:01:13;4.50;99.90
4433;DHT22;2229;48.708;9.706;2024-03-25T02:03:41;4.50;99.90
4433;DHT22;2229;48.708;9.706;2024-03-25T02:06:12;4.50;99.90
4433;DHT22;2229;48.708;9.706;2024-03-25T02:08:39;4.50;99.90
4433;DHT22;2229;48.708;9.706;2024-03-25T02:11:07;4.40;99.90
4433;DHT22;2229;48.708;9.706;2024-03-25T02:13:35;4.40;99.90
4433;DHT22;2229;48.708;9.706;2024-03-25T02:16:03;4.40;99.90
4433;DHT22;2229;48.708;9.706;2024-03-25T02:18:30;4.30;99.90
4433;DHT22;2229;48.708;9.706;2024-03-25T02:20:57;4.30;99.90
4433;DHT22;2229;48.708;9.706;2024-03-25T02:23:24;4.30;99.90
4433;DHT22;2229;48.708;9.706;2024-03-25T02:25:53;4.30;99.90
4433;DHT22;2229;48.708;9.706;2024-03-25T02:28:20;4.40;99.90
4433;DHT22;2229;48.708;9.706;2024-03-25T02:30:47;4.40;99.90
4433;DHT22;2229;48.708;9.706;2024-03-25T02:33:14;4.40;99.90
4433;DHT22;2229;48.708;9.706;2024-03-25T02:35:42;4.40;99.90
4433;DHT22;2229;48.708;9.706;2024-03-25T02:38:09;4.40;99.90
4433;DHT22;2229;48.708;9.706;2024-03-25T02:40:37;4.40;99.90
4433;DHT22;2229;48.708;9.706;2024-03-25T02:43:05;4.50;99.90
4433;DHT22;2229;48.708;9.706;2024-03-25T02:45:34;4.30;99.90
4433;DHT22;2229;48.708;9.706;2024-03-25T02:48:00;4.50;99.90
4433;DHT22;2229;48.708;9.706;2024-03-25T02:50:28;4.50;99.90
4433;DHT22;2229;48.708;9.706;2024-03-25T02:52:54;4.50;99.90
4433;DHT22;2229;48.708;9.706;2024-03-25T02:55:21;4.60;99.90
4433;DHT22;2229;48.708;9.706;2024-03-25T02:57:47;4.50;99.90
4433;DHT22;2229;48.708;9.706;2024-03-25T03:00:16;4.60;99.90
4433;DHT22;2229;48.708;9.706;2024-03-25T03:02:43;4.60;99.90
4433;DHT22;2229;48.708;9.706;2024-03-25T03:05:10;4.60;99.90
4433;DHT22;2229;48.708;9.706;2024-03-25T03:07:37;4.60;99.90
4433;DHT22;2229;48.708;9.706;2024-03-25T03:10:05;4.60;99.90
4433;DHT22;2229;48.708;9.706;2024-03-25T03:12:32;4.60;99.90
4433;DHT22;2229;48.708;9.706;2024-03-25T03:14:59;4.60;99.90
4433;DHT22;2229;48.708;9.706;2024-03-25T03:17:26;4.70;99.90
4433;DHT22;2229;48.708;9.706;2024-03-25T03:19:53;4.70;99.90
4433;DHT22;2229;48.708;9.706;2024-03-25T03:22:20;4.70;99.90
4433;DHT22;2229;48.708;9.706;2024-03-25T03:24:47;4.70;99.90
4433;DHT22;2229;48.708;9.706;2024-03-25T03:27:15;4.70;99.90
4433;DHT22;2229;48.708;9.706;2024-03-25T03:29:42;4.70;99.90
4433;DHT22;2229;48.708;9.706;2024-03-25T03:32:08;4.70;99.90
4433;DHT22;2229;48.708;9.706;2024-03-25T03:34:36;4.70;99.90
4433;DHT22;2229;48.708;9.706;2024-03-25T03:37:03;4.70;99.90
4433;DHT22;2229;48.708;9.706;2024-03-25T03:39:30;4.70;99.90
4433;DHT22;2229;48.708;9.706;2024-03-25T03:41:56;4.70;99.90
4433;DHT22;2229;48.708;9.706;2024-03-25T03:44:24;4.70;99.90
4433;DHT22;2229;48.708;9.706;2024-03-25T03:46:51;4.70;99.90
4433;DHT22;2229;48.708;9.706;2024-03-25T03:49:18;4.70;99.90
4433;DHT22;2229;48.708;9.706;2024-03-25T03:51:46;4.70;99.90
4433;DHT22;2229;48.708;9.706;2024-03-25T03:54:13;4.70;99.90
4433;DHT22;2229;48.708;9.706;2024-03-25T03:56:39;4.80;99.90
4433;DHT22;2229;48.708;9.706;2024-03-25T03:59:07;4.80;99.90
4433;DHT22;2229;48.708;9.706;2024-03-25T04:01:33;4.80;99.90
4433;DHT22;2229;48.708;9.706;2024-03-25T04:04:00;4.80;99.90
4433;DHT22;2229;48.708;9.706;2024-03-25T04:06:27;4.80;99.90
4433;DHT22;2229;48.708;9.706;2024-03-25T04:08:55;4.80;99.90
4433;DHT22;2229;48.708;9.706;2024-03-25T04:11:23;4.80;99.90
4433;DHT22;2229;48.708;9.706;2024-03-25T04:13:49;4.90;99.90
4433;DHT22;2229;48.708;9.706;2024-03-25T04:16:16;4.90;99.90
4433;DHT22;2229;48.708;9.706;2024-03-25T04:18:43;4.90;99.90
4433;DHT22;2229;48.708;9.706;2024-03-25T04:21:12;4.90;99.90
4433;DHT22;2229;48.708;9.706;2024-03-25T04:23:38;4.90;99.90
4433;DHT22;2229;48.708;9.706;2024-03-25T04:26:08;4.90;99.90
4433;DHT22;2229;48.708;9.706;2024-03-25T04:28:35;4.80;99.90
4433;DHT22;2229;48.708;9.706;2024-03-25T04:31:03;4.80;99.90
4433;DHT22;2229;48.708;9.706;2024-03-25T04:33:29;4.80;99.90
4433;DHT22;2229;48.708;9.706;2024-03-25T04:35:56;4.80;99.90
4433;DHT22;2229;48.708;9.706;2024-03-25T04:38:23;4.80;99.90
4433;DHT22;2229;48.708;9.706;2024-03-25T04:40:49;4.80;99.90
4433;DHT22;2229;48.708;9.706;2024-03-25T04:43:17;4.70;99.90
4433;DHT22;2229;48.708;9.706;2024-03-25T04:45:44;4.80;99.90
4433;DHT22;2229;48.708;9.706;2024-03-25T04:48:10;4.80;99.90
4433;DHT22;2229;48.708;9.706;2024-03-25T04:50:36;4.70;99.90
4433;DHT22;2229;48.708;9.706;2024-03-25T04:53:03;4.70;99.90
4433;DHT22;2229;48.708;9.706;2024-03-25T04:55:32;4.70;99.90
4433;DHT22;2229;48.708;9.706;2024-03-25T04:57:59;4.70;99.90
4433;DHT22;2229;48.708;9.706;2024-03-25T05:00:27;4.70;99.90
4433;DHT22;2229;48.708;9.706;2024-03-25T05:02:53;4.70;99.90
4433;DHT22;2229;48.708;9.706;2024-03-25T05:05:22;4.70;99.90
4433;DHT22;2229;48.708;9.706;2024-03-25T05:07:49;4.80;99.90
4433;DHT22;2229;48.708;9.706;2024-03-25T05:10:15;4.80;99.90
4433;DHT22;2229;48.708;9.706;2024-03-25T05:12:41;4.80;99.90
4433;DHT22;2229;48.708;9.706;2024-03-25T05:15:08;4.90;99.90
4433;DHT22;2229;48.708;9.706;2024-03-25T05:17:36;4.90;99.90
4433;DHT22;2229;48.708;9.706;2024-03-25T05:20:03;4.90;99.90
4433;DHT22;2229;48.708;9.706;2024-03-25T05:22:29;5.00;99.90
4433;DHT22;2229;48.708;9.706;2024-03-25T05:24:56;5.00;99.90
4433;DHT22;2229;48.708;9.706;2024-03-25T05:27:22;5.00;99.90
4433;DHT22;2229;48.708;9.706;2024-03-25T05:29:49;5.00;99.90
4433;DHT22;2229;48.708;9.706;2024-03-25T05:32:15;5.00;99.90
4433;DHT22;2229;48.708;9.706;2024-03-25T05:34:43;5.00;99.90
4433;DHT22;2229;48.708;9.706;2024-03-25T05:37:09;5.00;99.90
4433;DHT22;2229;48.708;9.706;2024-03-25T05:39:35;5.00;99.90
4433;DHT22;2229;48.708;9.706;2024-03-25T05:42:02;5.00;99.90
4433;DHT22;2229;48.708;9.706;2024-03-25T05:44:28;5.00;99.90
4433;DHT22;2229;48.708;9.706;2024-03-25T05:46:55;5.00;99.90
4433;DHT22;2229;48.708;9.706;2024-03-25T05:49:22;5.00;99.90
4433;DHT22;2229;48.708;9.706;2024-03-25T05:51:50;5.10;99.90
4433;DHT22;2229;48.708;9.706;2024-03-25T05:54:17;5.10;99.90
4433;DHT22;2229;48.708;9.706;2024-03-25T05:56:43;5.10;99.90
4433;DHT22;2229;48.708;9.706;2024-03-25T05:59:09;5.10;99.90
4433;DHT22;2229;48.708;9.706;2024-03-25T06:01:36;5.10;99.90
4433;DHT22;2229;48.708;9.706;2024-03-25T06:04:03;5.00;99.90
4433;DHT22;2229;48.708;9.706;2024-03-25T06:06:29;5.10;99.90
4433;DHT22;2229;48.708;9.706;2024-03-25T06:08:57;5.00;99.90
4433;DHT22;2229;48.708;9.706;2024-03-25T06:11:24;5.10;99.90
4433;DHT22;2229;48.708;9.706;2024-03-25T06:13:50;5.20;99.90
4433;DHT22;2229;48.708;9.706;2024-03-25T06:16:18;5.20;99.90
4433;DHT22;2229;48.708;9.706;2024-03-25T06:18:44;5.20;99.90
4433;DHT22;2229;48.708;9.706;2024-03-25T06:21:11;5.20;99.90
4433;DHT22;2229;48.708;9.706;2024-03-25T06:23:38;5.40;99.90
4433;DHT22;2229;48.708;9.706;2024-03-25T06:26:06;5.30;99.90
4433;DHT22;2229;48.708;9.706;2024-03-25T06:28:33;5.40;99.90
4433;DHT22;2229;48.708;9.706;2024-03-25T06:30:59;5.40;99.90
4433;DHT22;2229;48.708;9.706;2024-03-25T06:33:40;5.50;99.90
4433;DHT22;2229;48.708;9.706;2024-03-25T06:36:25;5.50;99.90
4433;DHT22;2229;48.708;9.706;2024-03-25T06:38:51;5.50;99.90
4433;DHT22;2229;48.708;9.706;2024-03-25T06:41:19;5.60;99.90
4433;DHT22;2229;48.708;9.706;2024-03-25T06:43:46;5.60;99.90
4433;DHT22;2229;48.708;9.706;2024-03-25T06:46:12;5.70;99.90
4433;DHT22;2229;48.708;9.706;2024-03-25T06:48:40;5.80;99.90
4433;DHT22;2229;48.708;9.706;2024-03-25T06:51:06;5.80;99.90
4433;DHT22;2229;48.708;9.706;2024-03-25T06:53:32;5.80;99.90
4433;DHT22;2229;48.708;9.706;2024-03-25T06:55:59;5.80;99.90
4433;DHT22;2229;48.708;9.706;2024-03-25T06:58:27;5.90;99.90
4433;DHT22;2229;48.708;9.706;2024-03-25T07:00:55;5.90;99.90
4433;DHT22;2229;48.708;9.706;2024-03-25T07:03:22;6.10;99.90
4433;DHT22;2229;48.708;9.706;2024-03-25T07:05:50;6.00;99.90
4433;DHT22;2229;48.708;9.706;2024-03-25T07:08:17;6.00;99.90
4433;DHT22;2229;48.708;9.706;2024-03-25T07:10:44;6.10;99.90
4433;DHT22;2229;48.708;9.706;2024-03-25T07:13:11;6.10;99.90
4433;DHT22;2229;48.708;9.706;2024-03-25T07:15:39;6.10;99.90
4433;DHT22;2229;48.708;9.706;2024-03-25T07:18:06;6.20;99.90
4433;DHT22;2229;48.708;9.706;2024-03-25T07:20:32;6.20;99.90
4433;DHT22;2229;48.708;9.706;2024-03-25T07:22:59;6.20;99.90
4433;DHT22;2229;48.708;9.706;2024-03-25T07:25:25;6.30;99.90
4433;DHT22;2229;48.708;9.706;2024-03-25T07:28:01;6.40;99.90
4433;DHT22;2229;48.708;9.706;2024-03-25T07:30:27;6.40;99.90
4433;DHT22;2229;48.708;9.706;2024-03-25T07:32:55;6.50;99.90
4433;DHT22;2229;48.708;9.706;2024-03-25T07:35:21;6.60;99.90
4433;DHT22;2229;48.708;9.706;2024-03-25T07:37:48;6.70;99.90
4433;DHT22;2229;48.708;9.706;2024-03-25T07:40:14;6.70;99.90
4433;DHT22;2229;48.708;9.706;2024-03-25T07:42:41;6.80;99.90
4433;DHT22;2229;48.708;9.706;2024-03-25T07:45:07;6.90;99.90
4433;DHT22;2229;48.708;9.706;2024-03-25T07:47:34;6.60;99.90
4433;DHT22;2229;48.708;9.706;2024-03-25T07:50:02;7.00;99.90
4433;DHT22;2229;48.708;9.706;2024-03-25T07:52:28;7.00;99.80
4433;DHT22;2229;48.708;9.706;2024-03-25T07:54:55;7.40;99.90
4433;DHT22;2229;48.708;9.706;2024-03-25T07:57:22;7.60;99.50
4433;DHT22;2229;48.708;9.706;2024-03-25T07:59:48;7.70;98.90
4433;DHT22;2229;48.708;9.706;2024-03-25T08:02:15;7.60;98.10
4433;DHT22;2229;48.708;9.706;2024-03-25T08:04:41;7.60;97.70
4433;DHT22;2229;48.708;9.706;2024-03-25T08:07:10;7.60;97.60
4433;DHT22;2229;48.708;9.706;2024-03-25T08:09:37;7.60;97.50
4433;DHT22;2229;48.708;9.706;2024-03-25T08:12:04;7.70;97.40
4433;DHT22;2229;48.708;9.706;2024-03-25T08:14:30;8.20;97.90
4433;DHT22;2229;48.708;9.706;2024-03-25T08:16:57;8.80;97.60
4433;DHT22;2229;48.708;9.706;2024-03-25T08:19:23;9.30;96.40
4433;DHT22;2229;48.708;9.706;2024-03-25T08:21:49;9.80;95.90
4433;DHT22;2229;48.708;9.706;2024-03-25T08:24:17;10.10;93.90
4433;DHT22;2229;48.708;9.706;2024-03-25T08:26:43;10.30;93.30
4433;DHT22;2229;48.708;9.706;2024-03-25T08:29:09;11.50;93.20
4433;DHT22;2229;48.708;9.706;2024-03-25T08:31:36;13.20;91.70
4433;DHT22;2229;48.708;9.706;2024-03-25T08:34:02;15.10;87.40
4433;DHT22;2229;48.708;9.706;2024-03-25T08:36:29;16.80;81.00
4433;DHT22;2229;48.708;9.706;2024-03-25T08:38:55;17.60;74.30
4433;DHT22;2229;48.708;9.706;2024-03-25T08:41:23;17.60;71.40
4433;DHT22;2229;48.708;9.706;2024-03-25T08:43:49;18.10;68.60
4433;DHT22;2229;48.708;9.706;2024-03-25T08:46:16;18.90;66.80
4433;DHT22;2229;48.708;9.706;2024-03-25T08:48:42;19.50;64.10
4433;DHT22;2229;48.708;9.706;2024-03-25T08:51:08;19.90;61.30
4433;DHT22;2229;48.708;9.706;2024-03-25T08:53:35;20.20;59.40
4433;DHT22;2229;48.708;9.706;2024-03-25T08:56:02;20.70;57.40
4433;DHT22;2229;48.708;9.706;2024-03-25T08:58:31;21.10;56.80
4433;DHT22;2229;48.708;9.706;2024-03-25T09:00:57;21.60;56.10
4433;DHT22;2229;48.708;9.706;2024-03-25T09:03:24;21.90;55.00
4433;DHT22;2229;48.708;9.706;2024-03-25T09:05:53;22.50;54.80
4433;DHT22;2229;48.708;9.706;2024-03-25T09:08:20;23.00;53.30
4433;DHT22;2229;48.708;9.706;2024-03-25T09:10:46;23.40;52.10
4433;DHT22;2229;48.708;9.706;2024-03-25T09:13:32;23.80;50.70
4433;DHT22;2229;48.708;9.706;2024-03-25T09:15:59;24.10;50.00
4433;DHT22;2229;48.708;9.706;2024-03-25T09:18:25;24.60;49.80
4433;DHT22;2229;48.708;9.706;2024-03-25T09:20:54;24.80;48.10
4433;DHT22;2229;48.708;9.706;2024-03-25T09:23:20;24.90;46.70
4433;DHT22;2229;48.708;9.706;2024-03-25T09:25:53;25.00;46.80
4433;DHT22;2229;48.708;9.706;2024-03-25T09:28:19;25.10;46.60
4433;DHT22;2229;48.708;9.706;2024-03-25T09:30:47;24.80;46.10
4433;DHT22;2229;48.708;9.706;2024-03-25T09:33:13;24.70;46.00
4433;DHT22;2229;48.708;9.706;2024-03-25T09:35:40;24.70;45.70
4433;DHT22;2229;48.708;9.706;2024-03-25T09:38:06;24.60;45.60
4433;DHT22;2229;48.708;9.706;2024-03-25T09:40:35;24.90;44.20
4433;DHT22;2229;48.708;9.706;2024-03-25T09:43:02;24.90;44.30
4433;DHT22;2229;48.708;9.706;2024-03-25T09:45:30;25.00;44.30
4433;DHT22;2229;48.708;9.706;2024-03-25T09:47:57;24.90;43.90
4433;DHT22;2229;48.708;9.706;2024-03-25T09:50:24;23.60;43.80
4433;DHT22;2229;48.708;9.706;2024-03-25T09:52:51;22.40;45.40
4433;DHT22;2229;48.708;9.706;2024-03-25T09:55:18;22.30;46.10
4433;DHT22;2229;48.708;9.706;2024-03-25T09:57:46;22.60;46.50
4433;DHT22;2229;48.708;9.706;2024-03-25T10:00:13;23.20;46.60
4433;DHT22;2229;48.708;9.706;2024-03-25T10:02:42;23.90;46.30
4433;DHT22;2229;48.708;9.706;2024-03-25T10:05:10;24.40;45.60
4433;DHT22;2229;48.708;9.706;2024-03-25T10:07:37;24.70;44.90
4433;DHT22;2229;48.708;9.706;2024-03-25T10:10:04;24.90;44.50
4433;DHT22;2229;48.708;9.706;2024-03-25T10:12:31;25.20;43.70
4433;DHT22;2229;48.708;9.706;2024-03-25T10:15:03;25.20;43.70
4433;DHT22;2229;48.708;9.706;2024-03-25T10:17:30;25.10;43.40
4433;DHT22;2229;48.708;9.706;2024-03-25T10:19:56;25.20;43.30
4433;DHT22;2229;48.708;9.706;2024-03-25T10:22:24;25.30;42.40
4433;DHT22;2229;48.708;9.706;2024-03-25T10:24:51;25.30;42.40
4433;DHT22;2229;48.708;9.706;2024-03-25T10:27:18;25.40;42.10
4433;DHT22;2229;48.708;9.706;2024-03-25T10:29:47;25.20;42.20
4433;DHT22;2229;48.708;9.706;2024-03-25T10:32:13;25.10;42.90
4433;DHT22;2229;48.708;9.706;2024-03-25T10:34:42;25.30;43.50
4433;DHT22;2229;48.708;9.706;2024-03-25T10:37:10;25.50;42.40
4433;DHT22;2229;48.708;9.706;2024-03-25T10:39:39;25.50;41.70
4433;DHT22;2229;48.708;9.706;2024-03-25T10:42:11;25.20;41.50
4433;DHT22;2229;48.708;9.706;2024-03-25T10:44:39;24.90;41.00
4433;DHT22;2229;48.708;9.706;2024-03-25T10:47:07;24.50;41.50
4433;DHT22;2229;48.708;9.706;2024-03-25T10:49:38;24.20;40.90
4433;DHT22;2229;48.708;9.706;2024-03-25T10:52:08;23.80;40.10
4433;DHT22;2229;48.708;9.706;2024-03-25T10:54:36;23.40;40.60
4433;DHT22;2229;48.708;9.706;2024-03-25T10:57:06;23.00;41.80
4433;DHT22;2229;48.708;9.706;2024-03-25T10:59:35;22.80;43.10
4433;DHT22;2229;48.708;9.706;2024-03-25T11:02:01;22.80;42.70
4433;DHT22;2229;48.708;9.706;2024-03-25T11:04:29;22.90;42.10
4433;DHT22;2229;48.708;9.706;2024-03-25T11:07:07;22.90;41.60
4433;DHT22;2229;48.708;9.706;2024-03-25T11:09:33;22.80;41.20
4433;DHT22;2229;48.708;9.706;2024-03-25T11:12:01;22.80;41.00
4433;DHT22;2229;48.708;9.706;2024-03-25T11:14:29;22.60;42.40
4433;DHT22;2229;48.708;9.706;2024-03-25T11:16:55;22.30;42.50
4433;DHT22;2229;48.708;9.706;2024-03-25T11:19:26;22.10;41.90
4433;DHT22;2229;48.708;9.706;2024-03-25T11:21:53;21.70;40.50
4433;DHT22;2229;48.708;9.706;2024-03-25T11:24:29;21.40;40.70
4433;DHT22;2229;48.708;9.706;2024-03-25T11:26:56;21.10;40.30
4433;DHT22;2229;48.708;9.706;2024-03-25T11:29:24;20.90;40.00
4433;DHT22;2229;48.708;9.706;2024-03-25T11:31:53;20.70;38.80
4433;DHT22;2229;48.708;9.706;2024-03-25T11:34:20;20.40;38.50
4433;DHT22;2229;48.708;9.706;2024-03-25T11:36:47;20.20;39.60
4433;DHT22;2229;48.708;9.706;2024-03-25T11:39:13;20.20;41.30
4433;DHT22;2229;48.708;9.706;2024-03-25T11:41:40;20.20;41.00
4433;DHT22;2229;48.708;9.706;2024-03-25T11:44:08;20.00;41.20
4433;DHT22;2229;48.708;9.706;2024-03-25T11:46:36;19.70;41.50
4433;DHT22;2229;48.708;9.706;2024-03-25T11:49:06;19.60;42.70
4433;DHT22;2229;48.708;9.706;2024-03-25T11:51:35;19.50;41.70
4433;DHT22;2229;48.708;9.706;2024-03-25T11:54:05;19.30;41.80
4433;DHT22;2229;48.708;9.706;2024-03-25T11:56:31;18.90;41.30
4433;DHT22;2229;48.708;9.706;2024-03-25T11:58:59;18.60;42.20
4433;DHT22;2229;48.708;9.706;2024-03-25T12:01:25;18.20;43.40
4433;DHT22;2229;48.708;9.706;2024-03-25T12:03:55;18.00;44.30
4433;DHT22;2229;48.708;9.706;2024-03-25T12:06:25;17.70;44.40
4433;DHT22;2229;48.708;9.706;2024-03-25T12:08:54;17.70;43.90
4433;DHT22;2229;48.708;9.706;2024-03-25T12:11:39;17.50;43.60
4433;DHT22;2229;48.708;9.706;2024-03-25T12:14:05;17.10;42.70
4433;DHT22;2229;48.708;9.706;2024-03-25T12:16:32;16.90;43.40
4433;DHT22;2229;48.708;9.706;2024-03-25T12:18:58;16.70;44.10
4433;DHT22;2229;48.708;9.706;2024-03-25T12:21:26;16.60;44.70
4433;DHT22;2229;48.708;9.706;2024-03-25T12:23:54;16.40;45.60
4433;DHT22;2229;48.708;9.706;2024-03-25T12:26:21;16.40;45.10
4433;DHT22;2229;48.708;9.706;2024-03-25T12:28:48;16.20;44.20
4433;DHT22;2229;48.708;9.706;2024-03-25T12:31:14;16.20;44.00
4433;DHT22;2229;48.708;9.706;2024-03-25T12:33:40;16.10;44.60
4433;DHT22;2229;48.708;9.706;2024-03-25T12:36:07;16.00;44.60
4433;DHT22;2229;48.708;9.706;2024-03-25T12:38:35;16.00;44.40
4433;DHT22;2229;48.708;9.706;2024-03-25T12:41:06;15.90;44.40
4433;DHT22;2229;48.708;9.706;2024-03-25T12:43:33;15.80;44.80
4433;DHT22;2229;48.708;9.706;2024-03-25T12:46:00;15.70;45.90
4433;DHT22;2229;48.708;9.706;2024-03-25T12:48:27;15.80;46.80
4433;DHT22;2229;48.708;9.706;2024-03-25T12:50:53;15.70;45.60
4433;DHT22;2229;48.708;9.706;2024-03-25T12:53:20;15.50;44.50
4433;DHT22;2229;48.708;9.706;2024-03-25T12:55:47;15.50;45.90
4433;DHT22;2229;48.708;9.706;2024-03-25T12:58:13;15.60;46.30
4433;DHT22;2229;48.708;9.706;2024-03-25T13:00:40;15.80;46.50
4433;DHT22;2229;48.708;9.706;2024-03-25T13:03:08;16.00;45.90
4433;DHT22;2229;48.708;9.706;2024-03-25T13:05:35;16.00;46.30
4433;DHT22;2229;48.708;9.706;2024-03-25T13:08:02;16.10;46.60
4433;DHT22;2229;48.708;9.706;2024-03-25T13:10:29;16.10;46.70
4433;DHT22;2229;48.708;9.706;2024-03-25T13:12:57;16.10;46.80
4433;DHT22;2229;48.708;9.706;2024-03-25T13:15:23;16.10;47.00
4433;DHT22;2229;48.708;9.706;2024-03-25T13:17:50;16.10;46.80
4433;DHT22;2229;48.708;9.706;2024-03-25T13:20:17;16.00;46.10
4433;DHT22;2229;48.708;9.706;2024-03-25T13:22:44;15.90;46.20
4433;DHT22;2229;48.708;9.706;2024-03-25T13:25:11;15.90;46.80
4433;DHT22;2229;48.708;9.706;2024-03-25T13:27:38;15.90;47.20
4433;DHT22;2229;48.708;9.706;2024-03-25T13:30:07;16.00;47.60
4433;DHT22;2229;48.708;9.706;2024-03-25T13:32:34;16.00;47.80
4433;DHT22;2229;48.708;9.706;2024-03-25T13:35:00;16.00;48.00
4433;DHT22;2229;48.708;9.706;2024-03-25T13:37:26;15.90;48.10
4433;DHT22;2229;48.708;9.706;2024-03-25T13:39:52;15.90;46.90
4433;DHT22;2229;48.708;9.706;2024-03-25T13:42:19;15.70;46.00
4433;DHT22;2229;48.708;9.706;2024-03-25T13:44:45;15.60;46.90
4433;DHT22;2229;48.708;9.706;2024-03-25T13:47:12;15.60;47.20
4433;DHT22;2229;48.708;9.706;2024-03-25T13:49:39;15.60;47.40
4433;DHT22;2229;48.708;9.706;2024-03-25T13:52:08;15.70;47.70
4433;DHT22;2229;48.708;9.706;2024-03-25T13:54:35;15.80;47.90
4433;DHT22;2229;48.708;9.706;2024-03-25T13:57:02;15.90;47.90
4433;DHT22;2229;48.708;9.706;2024-03-25T13:59:28;15.80;47.70
4433;DHT22;2229;48.708;9.706;2024-03-25T14:01:54;15.70;47.00
4433;DHT22;2229;48.708;9.706;2024-03-25T14:04:22;15.60;45.70
4433;DHT22;2229;48.708;9.706;2024-03-25T14:06:48;15.40;46.50
4433;DHT22;2229;48.708;9.706;2024-03-25T14:09:23;15.40;46.70
4433;DHT22;2229;48.708;9.706;2024-03-25T14:11:50;15.40;46.80
4433;DHT22;2229;48.708;9.706;2024-03-25T14:14:16;15.40;46.90
4433;DHT22;2229;48.708;9.706;2024-03-25T14:16:42;15.50;47.10
4433;DHT22;2229;48.708;9.706;2024-03-25T14:19:09;15.50;47.30
4433;DHT22;2229;48.708;9.706;2024-03-25T14:21:36;15.60;47.20
4433;DHT22;2229;48.708;9.706;2024-03-25T14:24:04;15.60;45.50
4433;DHT22;2229;48.708;9.706;2024-03-25T14:26:31;15.40;44.50
4433;DHT22;2229;48.708;9.706;2024-03-25T14:28:57;15.30;44.00
4433;DHT22;2229;48.708;9.706;2024-03-25T14:31:23;15.20;45.10
4433;DHT22;2229;48.708;9.706;2024-03-25T14:33:49;15.20;45.70
4433;DHT22;2229;48.708;9.706;2024-03-25T14:36:16;15.30;46.00
4433;DHT22;2229;48.708;9.706;2024-03-25T14:38:44;15.20;45.40
4433;DHT22;2229;48.708;9.706;2024-03-25T14:41:11;15.20;45.80
4433;DHT22;2229;48.708;9.706;2024-03-25T14:43:38;15.20;45.50
4433;DHT22;2229;48.708;9.706;2024-03-25T14:46:04;15.20;44.90
4433;DHT22;2229;48.708;9.706;2024-03-25T14:48:30;15.10;44.40
4433;DHT22;2229;48.708;9.706;2024-03-25T14:50:56;15.20;45.30
4433;DHT22;2229;48.708;9.706;2024-03-25T14:53:22;15.30;45.90
4433;DHT22;2229;48.708;9.706;2024-03-25T14:55:51;15.30;46.40
4433;DHT22;2229;48.708;9.706;2024-03-25T14:58:19;15.30;46.10
4433;DHT22;2229;48.708;9.706;2024-03-25T15:00:45;15.20;46.70
4433;DHT22;2229;48.708;9.706;2024-03-25T15:03:11;15.30;47.40
4433;DHT22;2229;48.708;9.706;2024-03-25T15:05:38;15.40;47.30
4433;DHT22;2229;48.708;9.706;2024-03-25T15:08:05;15.40;46.30
4433;DHT22;2229;48.708;9.706;2024-03-25T15:10:33;15.40;45.20
4433;DHT22;2229;48.708;9.706;2024-03-25T15:13:01;15.50;45.10
4433;DHT22;2229;48.708;9.706;2024-03-25T15:15:28;15.40;42.90
4433;DHT22;2229;48.708;9.706;2024-03-25T15:17:54;15.20;41.70
4433;DHT22;2229;48.708;9.706;2024-03-25T15:20:20;15.10;41.40
4433;DHT22;2229;48.708;9.706;2024-03-25T15:22:47;15.10;41.00
4433;DHT22;2229;48.708;9.706;2024-03-25T15:25:13;14.90;40.40
4433;DHT22;2229;48.708;9.706;2024-03-25T15:27:39;14.80;40.70
4433;DHT22;2229;48.708;9.706;2024-03-25T15:30:08;14.60;40.60
4433;DHT22;2229;48.708;9.706;2024-03-25T15:32:34;14.50;40.60
4433;DHT22;2229;48.708;9.706;2024-03-25T15:35:00;14.40;41.10
4433;DHT22;2229;48.708;9.706;2024-03-25T15:37:26;14.50;41.90
4433;DHT22;2229;48.708;9.706;2024-03-25T15:39:52;14.50;42.00
4433;DHT22;2229;48.708;9.706;2024-03-25T15:42:19;14.50;42.00
4433;DHT22;2229;48.708;9.706;2024-03-25T15:44:45;14.40;41.80
4433;DHT22;2229;48.708;9.706;2024-03-25T15:47:13;14.20;41.30
4433;DHT22;2229;48.708;9.706;2024-03-25T15:49:39;14.10;41.70
4433;DHT22;2229;48.708;9.706;2024-03-25T15:52:05;14.00;42.20
4433;DHT22;2229;48.708;9.706;2024-03-25T15:54:31;14.00;42.50
4433;DHT22;2229;48.708;9.706;2024-03-25T15:56:58;14.10;42.60
4433;DHT22;2229;48.708;9.706;2024-03-25T15:59:24;14.10;42.70
4433;DHT22;2229;48.708;9.706;2024-03-25T16:01:50;14.10;42.90
4433;DHT22;2229;48.708;9.706;2024-03-25T16:04:17;14.20;42.80
4433;DHT22;2229;48.708;9.706;2024-03-25T16:06:44;14.20;42.70
4433;DHT22;2229;48.708;9.706;2024-03-25T16:09:10;14.00;42.40